createdAt,value
2019-02-23T00:02:17.581Z,32.73
2019-02-23T00:04:46.087Z,32.40
2019-02-23T00:07:14.682Z,32.57
2019-02-23T00:09:43.183Z,28.43
2019-02-23T00:12:12.011Z,32.97
2019-02-23T00:14:40.500Z,29.17
2019-02-23T00:17:09.022Z,27.70
2019-02-23T00:19:37.518Z,33.03
2019-02-23T00:22:06.048Z,34.37
2019-02-23T00:24:34.550Z,32.43
2019-02-23T00:27:03.073Z,34.87
2019-02-23T00:29:31.578Z,33.90
2019-02-23T00:32:00.112Z,30.97
2019-02-23T00:34:28.597Z,32.37
2019-02-23T00:36:57.134Z,31.27
2019-02-23T00:39:25.616Z,31.50
2019-02-23T00:41:54.132Z,34.53
2019-02-23T00:44:22.627Z,32.73
2019-02-23T00:46:51.119Z,32.53
2019-02-23T00:49:19.626Z,25.33
2019-02-23T00:51:48.118Z,29.97
2019-02-23T00:54:16.634Z,34.20
2019-02-23T00:56:45.132Z,30.10
2019-02-23T00:59:13.653Z,33.40
2019-02-23T01:01:42.140Z,32.97
2019-02-23T01:04:10.653Z,29.87
2019-02-23T01:06:39.142Z,31.93
2019-02-23T01:09:08.027Z,32.37
2019-02-23T01:11:36.588Z,31.27
2019-02-23T01:14:05.102Z,33.57
2019-02-23T01:16:33.594Z,30.63
2019-02-23T01:19:02.117Z,35.40
2019-02-23T01:21:30.610Z,36.27
2019-02-23T01:23:59.132Z,34.13
2019-02-23T01:26:27.624Z,30.10
2019-02-23T01:28:56.298Z,30.17
2019-02-23T01:31:24.991Z,40.70
2019-02-23T01:33:53.581Z,32.60
2019-02-23T01:36:22.271Z,28.33
2019-02-23T01:38:50.855Z,32.27
2019-02-23T01:41:19.346Z,30.00
2019-02-23T01:43:47.862Z,28.30
2019-02-23T01:46:16.354Z,31.43
2019-02-23T01:48:44.879Z,35.07
2019-02-23T01:51:13.371Z,30.03
2019-02-23T01:53:41.987Z,28.97
2019-02-23T01:56:10.472Z,29.60
2019-02-23T01:58:38.985Z,27.93
2019-02-23T02:01:07.543Z,30.73
2019-02-23T02:03:36.064Z,31.00
2019-02-23T02:06:04.741Z,29.47
2019-02-23T02:08:33.218Z,28.20
2019-02-23T02:11:01.779Z,30.03
2019-02-23T02:13:30.302Z,29.90
2019-02-23T02:15:58.794Z,29.87
2019-02-23T02:18:27.308Z,27.40
2019-02-23T02:20:55.802Z,36.57
2019-02-23T02:23:24.322Z,33.23
2019-02-23T02:25:52.814Z,27.13
2019-02-23T02:28:21.324Z,27.47
2019-02-23T02:30:49.819Z,26.97
2019-02-23T02:33:18.337Z,23.60
2019-02-23T02:35:46.828Z,28.10
2019-02-23T02:38:15.351Z,24.43
2019-02-23T02:40:43.841Z,27.43
2019-02-23T02:43:12.361Z,28.53
2019-02-23T02:45:40.852Z,28.57
2019-02-23T02:48:09.366Z,30.17
2019-02-23T02:50:37.862Z,29.23
2019-02-23T02:53:06.389Z,29.63
2019-02-23T02:55:34.972Z,30.23
2019-02-23T02:58:03.483Z,27.17
2019-02-23T03:00:31.978Z,27.13
2019-02-23T03:03:00.502Z,28.57
2019-02-23T03:05:28.997Z,25.47
2019-02-23T03:07:57.489Z,24.83
2019-02-23T03:10:26.002Z,27.77
2019-02-23T03:12:54.497Z,30.83
2019-02-23T03:15:23.017Z,26.67
2019-02-23T03:17:51.509Z,22.27
2019-02-23T03:20:20.021Z,26.00
2019-02-23T03:22:48.552Z,21.60
2019-02-23T03:25:17.063Z,26.13
2019-02-23T03:27:45.564Z,25.43
2019-02-23T03:30:14.081Z,22.80
2019-02-23T03:32:42.564Z,29.83
2019-02-23T03:35:11.155Z,35.00
2019-02-23T03:37:39.652Z,30.50
2019-02-23T03:40:09.102Z,26.90
2019-02-23T03:42:37.667Z,26.67
2019-02-23T03:45:06.644Z,23.87
2019-02-23T03:47:35.135Z,24.93
2019-02-23T03:50:04.486Z,25.27
2019-02-23T03:52:32.974Z,27.57
2019-02-23T03:55:01.558Z,27.40
2019-02-23T03:57:30.051Z,25.77
2019-02-23T03:59:58.639Z,24.80
2019-02-23T04:02:27.129Z,23.30
2019-02-23T04:04:57.286Z,27.50
2019-02-23T04:07:25.782Z,31.70
2019-02-23T04:09:54.298Z,26.13
2019-02-23T04:12:22.790Z,27.03
2019-02-23T04:14:51.307Z,34.57
2019-02-23T04:17:19.802Z,30.60
2019-02-23T04:19:48.316Z,29.47
2019-02-23T04:22:16.804Z,32.27
2019-02-23T04:24:45.330Z,28.07
2019-02-23T04:27:13.828Z,29.37
2019-02-23T04:29:42.351Z,26.50
2019-02-23T04:32:10.843Z,25.70
2019-02-23T04:34:39.359Z,25.60
2019-02-23T04:37:07.925Z,28.37
2019-02-23T04:39:36.448Z,26.80
2019-02-23T04:42:04.938Z,31.40
2019-02-23T04:44:33.460Z,30.43
2019-02-23T04:47:01.950Z,30.90
2019-02-23T04:49:30.468Z,33.67
2019-02-23T04:51:58.958Z,34.40
2019-02-23T04:54:27.481Z,28.97
2019-02-23T04:56:55.970Z,30.57
2019-02-23T04:59:24.499Z,26.57
2019-02-23T05:01:52.977Z,30.27
2019-02-23T05:04:21.561Z,26.00
2019-02-23T05:06:50.066Z,29.30
2019-02-23T05:09:18.566Z,23.93
2019-02-23T05:11:47.062Z,26.90
2019-02-23T05:14:15.589Z,26.27
2019-02-23T05:16:44.080Z,26.30
2019-02-23T05:19:12.598Z,30.83
2019-02-23T05:21:41.098Z,32.30
2019-02-23T05:24:09.622Z,33.93
2019-02-23T05:26:38.180Z,32.23
2019-02-23T05:29:06.699Z,26.13
2019-02-23T05:31:35.193Z,23.23
2019-02-23T05:34:03.677Z,27.77
2019-02-23T05:36:32.201Z,26.10
2019-02-23T05:39:00.719Z,22.57
2019-02-23T05:41:29.218Z,29.60
2019-02-23T05:43:57.776Z,26.00
2019-02-23T05:46:26.291Z,22.53
2019-02-23T05:48:54.796Z,24.27
2019-02-23T05:51:23.302Z,24.97
2019-02-23T05:53:51.788Z,23.83
2019-02-23T05:56:20.306Z,27.03
2019-02-23T05:58:48.793Z,23.27
2019-02-23T06:01:17.310Z,23.03
2019-02-23T06:03:45.820Z,24.20
2019-02-23T06:06:14.337Z,23.27
2019-02-23T06:08:42.821Z,21.23
2019-02-23T06:11:11.334Z,24.23
2019-02-23T06:13:39.830Z,27.73
2019-02-23T06:16:08.346Z,20.43
2019-02-23T06:18:36.846Z,19.67
2019-02-23T06:21:05.367Z,23.77
2019-02-23T06:23:34.028Z,18.43
2019-02-23T06:26:02.544Z,19.80
2019-02-23T06:28:31.103Z,18.43
2019-02-23T06:30:59.611Z,16.37
2019-02-23T06:33:28.098Z,17.57
2019-02-23T06:35:56.602Z,14.50
2019-02-23T06:38:25.097Z,19.30
2019-02-23T06:40:53.610Z,19.73
2019-02-23T06:43:22.108Z,18.93
2019-02-23T06:45:50.615Z,16.97
2019-02-23T06:48:19.964Z,16.77
2019-02-23T06:50:48.690Z,21.20
2019-02-23T06:53:17.172Z,16.30
2019-02-23T06:55:45.686Z,15.33
2019-02-23T06:58:14.174Z,20.77
2019-02-23T07:00:42.692Z,17.80
2019-02-23T07:03:11.178Z,20.70
2019-02-23T07:05:39.699Z,17.30
2019-02-23T07:08:08.190Z,18.37
2019-02-23T07:10:36.701Z,15.37
2019-02-23T07:13:05.193Z,17.87
2019-02-23T07:15:33.705Z,15.67
2019-02-23T07:18:02.184Z,16.93
2019-02-23T07:20:30.690Z,17.30
2019-02-23T07:22:59.181Z,17.97
2019-02-23T07:25:27.689Z,18.17
2019-02-23T07:27:56.178Z,20.73
2019-02-23T07:30:24.682Z,19.17
2019-02-23T07:32:53.164Z,24.77
2019-02-23T07:35:21.682Z,16.33
2019-02-23T07:37:50.178Z,16.67
2019-02-23T07:40:18.683Z,19.17
2019-02-23T07:42:47.170Z,16.83
2019-02-23T07:45:16.453Z,19.03
2019-02-23T07:47:44.939Z,18.90
2019-02-23T07:50:15.402Z,19.63
2019-02-23T07:52:43.892Z,19.23
2019-02-23T07:55:12.376Z,18.73
2019-02-23T07:57:40.884Z,18.63
2019-02-23T08:00:13.901Z,19.57
2019-02-23T08:02:42.481Z,20.07
2019-02-23T08:05:11.180Z,21.23
2019-02-23T08:07:40.103Z,18.63
2019-02-23T08:10:10.794Z,17.80
2019-02-23T08:12:39.370Z,21.60
2019-02-23T08:15:09.995Z,14.93
2019-02-23T08:17:38.812Z,17.47
2019-02-23T08:20:11.746Z,18.33
2019-02-23T08:22:40.265Z,15.63
2019-02-23T08:25:11.163Z,18.87
2019-02-23T08:27:39.670Z,20.00
2019-02-23T08:30:11.551Z,18.10
2019-02-23T08:32:40.051Z,17.07
2019-02-23T08:35:08.977Z,15.90
2019-02-23T08:37:37.497Z,15.87
2019-02-23T08:40:11.653Z,17.57
2019-02-23T08:42:41.122Z,16.97
2019-02-23T08:45:10.465Z,17.27
2019-02-23T08:47:38.972Z,14.17
2019-02-23T08:50:13.135Z,17.07
2019-02-23T08:52:49.074Z,15.27
2019-02-23T08:57:47.691Z,20.23
2019-02-23T09:00:19.642Z,17.67
2019-02-23T09:02:50.453Z,15.87
2019-02-23T09:05:18.930Z,17.20
2019-02-23T09:07:47.438Z,15.13
2019-02-23T09:10:16.090Z,12.40
2019-02-23T09:12:44.933Z,14.53
2019-02-23T09:15:16.592Z,11.93
2019-02-23T09:40:33.533Z,10.07
2019-02-23T09:58:16.957Z,11.13
2019-02-23T10:09:10.162Z,12.47
2019-02-23T10:17:23.960Z,12.23
2019-02-23T10:19:55.300Z,12.13
2019-02-23T10:22:23.953Z,12.20
2019-02-23T11:00:04.683Z,10.45
2019-02-23T11:05:34.562Z,10.87
2019-02-23T11:20:17.082Z,15.00
2019-02-23T11:22:47.731Z,12.47
2019-02-23T11:25:16.395Z,10.87
2019-02-23T11:27:50.140Z,12.33
2019-02-23T11:30:18.712Z,10.90
2019-02-23T11:32:47.341Z,13.50
2019-02-23T11:35:17.607Z,11.23
2019-02-23T11:37:46.389Z,11.03
2019-02-23T11:40:16.010Z,12.97
2019-02-23T11:42:44.520Z,9.60
2019-02-23T11:45:13.155Z,12.53
2019-02-23T11:47:41.744Z,15.10
2019-02-23T11:50:12.641Z,13.63
2019-02-23T11:52:41.494Z,10.77
2019-02-23T11:55:10.212Z,9.23
2019-02-23T11:57:38.720Z,10.40
2019-02-23T12:00:12.422Z,11.93
2019-02-23T12:02:51.731Z,9.47
2019-02-23T12:05:11.626Z,12.00
2019-02-23T12:07:46.643Z,13.00
2019-02-23T12:10:16.190Z,15.23
2019-02-23T12:12:44.707Z,12.07
2019-02-23T12:15:13.275Z,9.57
2019-02-23T12:17:41.795Z,10.63
2019-02-23T12:20:11.610Z,9.57
2019-02-23T12:25:23.659Z,11.60
2019-02-23T12:27:53.918Z,11.33
2019-02-23T12:30:22.489Z,9.57
2019-02-23T12:32:51.035Z,10.07
2019-02-23T12:35:19.649Z,12.17
2019-02-23T12:37:48.443Z,9.07
2019-02-23T12:40:17.194Z,8.63
2019-02-23T12:42:45.745Z,14.27
2019-02-23T12:45:16.240Z,10.83
2019-02-23T12:47:46.731Z,13.80
2019-02-23T12:50:15.280Z,10.27
2019-02-23T12:52:43.929Z,8.57
2019-02-23T12:55:12.720Z,10.57
2019-02-23T12:57:50.648Z,11.73
2019-02-23T13:00:19.652Z,7.77
2019-02-23T13:02:48.376Z,6.93
2019-02-23T13:05:17.598Z,8.77
2019-02-23T13:07:46.310Z,17.47
2019-02-23T13:10:15.041Z,8.77
2019-02-23T13:12:53.027Z,8.17
2019-02-23T13:15:36.403Z,11.10
2019-02-23T13:18:25.794Z,9.43
2019-02-23T13:21:12.551Z,8.90
2019-02-23T13:23:50.114Z,9.00
2019-02-23T13:26:27.562Z,7.70
2019-02-23T13:29:21.607Z,8.13
2019-02-23T13:31:59.128Z,12.60
2019-02-23T13:34:36.389Z,15.30
2019-02-23T13:37:23.172Z,7.60
2019-02-23T13:40:00.645Z,9.00
2019-02-23T13:42:33.112Z,8.87
2019-02-23T13:45:13.848Z,9.27
2019-02-23T13:48:21.235Z,8.43
2019-02-23T13:50:57.581Z,10.73
2019-02-23T13:53:55.925Z,8.77
2019-02-23T13:56:33.289Z,8.77
2019-02-23T13:59:20.038Z,9.30
2019-02-23T14:02:00.669Z,10.47
2019-02-23T14:04:47.117Z,12.90
2019-02-23T14:07:24.290Z,16.20
2019-02-23T14:10:07.323Z,10.27
2019-02-23T14:12:54.167Z,8.03
2019-02-23T14:15:57.542Z,8.83
2019-02-23T14:18:51.585Z,6.90
2019-02-23T14:21:41.334Z,7.57
2019-02-23T14:24:30.902Z,9.93
2019-02-23T14:27:14.090Z,10.37
2019-02-23T14:30:09.931Z,9.03
2019-02-23T14:32:47.383Z,9.03
2019-02-23T14:35:30.756Z,9.37
2019-02-23T14:38:24.735Z,7.80
2019-02-23T14:41:05.294Z,7.63
2019-02-23T14:43:51.123Z,10.43
2019-02-23T14:46:34.413Z,8.67
2019-02-23T14:49:06.005Z,10.50
2019-02-23T14:51:40.409Z,10.53
2019-02-23T14:54:31.274Z,8.30
2019-02-23T14:57:14.608Z,9.67
2019-02-23T14:59:46.167Z,10.60
2019-02-23T15:02:40.415Z,10.10
2019-02-23T15:05:31.654Z,12.63
2019-02-23T15:08:22.630Z,10.17
2019-02-23T15:11:13.638Z,9.90
2019-02-23T15:14:03.183Z,11.33
2019-02-23T15:16:59.440Z,11.90
2019-02-23T15:19:48.846Z,15.00
2019-02-23T15:22:20.376Z,14.77
2019-02-23T15:25:12.746Z,16.37
2019-02-23T15:27:53.895Z,16.60
2019-02-23T15:30:25.454Z,12.13
2019-02-23T15:33:05.798Z,13.60
2019-02-23T15:35:37.443Z,13.67
2019-02-23T15:38:26.932Z,16.23
2019-02-23T15:41:27.244Z,14.40
2019-02-23T15:44:01.553Z,20.37
2019-02-23T15:46:45.079Z,17.13
2019-02-23T15:49:28.640Z,14.00
2019-02-23T15:51:57.221Z,17.47
2019-02-23T15:54:25.807Z,16.93
2019-02-23T15:56:54.365Z,15.87
2019-02-23T15:59:22.871Z,16.23
2019-02-23T16:01:51.535Z,14.17
2019-02-23T16:04:20.151Z,19.50
2019-02-23T16:06:48.750Z,22.50
2019-02-23T16:09:17.240Z,21.70
2019-02-23T16:11:45.809Z,17.53
2019-02-23T16:14:14.319Z,19.40
2019-02-23T16:16:42.884Z,18.17
2019-02-23T16:19:11.326Z,17.37
2019-02-23T16:21:40.112Z,20.33
2019-02-23T16:24:08.602Z,15.93
2019-02-23T16:26:37.119Z,20.20
2019-02-23T16:29:05.602Z,16.03
2019-02-23T16:31:34.102Z,17.77
2019-02-23T16:34:02.642Z,21.93
2019-02-23T16:36:31.172Z,19.70
2019-02-23T16:38:59.666Z,19.43
2019-02-23T16:41:28.179Z,17.63
2019-02-23T16:43:56.670Z,21.17
2019-02-23T16:46:25.184Z,16.50
2019-02-23T16:48:53.736Z,18.57
2019-02-23T16:51:22.236Z,15.33
2019-02-23T16:53:50.719Z,21.40
2019-02-23T16:56:19.230Z,18.47
2019-02-23T16:58:47.716Z,20.53
2019-02-23T17:01:16.233Z,18.93
2019-02-23T17:03:44.794Z,25.43
2019-02-23T17:06:13.314Z,24.80
2019-02-23T17:08:41.811Z,31.13
2019-02-23T17:11:12.410Z,35.90
2019-02-23T17:13:42.682Z,30.30
2019-02-23T17:16:11.655Z,28.50
2019-02-23T17:18:40.341Z,35.40
2019-02-23T17:21:08.948Z,36.40
2019-02-23T17:23:37.439Z,29.30
2019-02-23T17:26:05.961Z,34.70
2019-02-23T17:28:34.465Z,37.77
2019-02-23T17:31:02.986Z,42.90
2019-02-23T17:33:31.482Z,50.20
2019-02-23T17:35:59.999Z,58.53
2019-02-23T17:38:28.488Z,61.07
2019-02-23T17:40:57.006Z,59.10
2019-02-23T17:43:25.554Z,58.97
2019-02-23T17:45:54.156Z,58.63
2019-02-23T17:48:22.645Z,54.77
2019-02-23T17:50:51.143Z,60.63
2019-02-23T17:53:19.667Z,59.40
2019-02-23T17:55:48.152Z,58.53
2019-02-23T17:58:16.681Z,56.50
2019-02-23T18:00:45.167Z,63.70
2019-02-23T18:03:13.695Z,61.17
2019-02-23T18:05:42.178Z,65.17
2019-02-23T18:08:10.694Z,73.53
2019-02-23T18:10:39.193Z,69.33
2019-02-23T18:13:07.718Z,79.30
2019-02-23T18:15:36.211Z,74.70
2019-02-23T18:18:04.744Z,74.47
2019-02-23T18:20:33.244Z,73.77
2019-02-23T18:23:01.825Z,68.63
2019-02-23T18:25:30.317Z,72.43
2019-02-23T18:27:58.845Z,77.30
2019-02-23T18:30:27.349Z,80.30
2019-02-23T18:32:55.869Z,75.27
2019-02-23T18:35:24.363Z,74.30
2019-02-23T18:37:52.893Z,77.73
2019-02-23T18:40:21.397Z,76.20
2019-02-23T18:42:49.932Z,80.33
2019-02-23T18:45:18.440Z,68.50
2019-02-23T18:47:46.970Z,65.87
2019-02-23T18:50:15.484Z,58.57
2019-02-23T18:52:44.011Z,56.20
2019-02-23T18:55:12.517Z,48.30
2019-02-23T18:57:41.030Z,49.10
2019-02-23T19:00:12.170Z,56.77
2019-02-23T19:02:40.696Z,58.40
2019-02-23T19:05:11.794Z,63.90
2019-02-23T19:07:40.397Z,56.10
2019-02-23T19:10:11.731Z,59.73
2019-02-23T19:12:40.268Z,56.73
2019-02-23T19:15:11.411Z,62.33
2019-02-23T19:17:40.039Z,53.97
2019-02-23T19:20:11.171Z,58.30
2019-02-23T19:22:39.706Z,48.73
2019-02-23T19:25:10.745Z,58.97
2019-02-23T19:27:39.280Z,52.27
2019-02-23T19:30:10.721Z,49.00
2019-02-23T19:32:39.276Z,51.90
2019-02-23T19:35:09.379Z,51.93
2019-02-23T19:37:37.906Z,46.57
2019-02-23T19:40:10.744Z,66.23
2019-02-23T19:42:39.327Z,55.43
2019-02-23T19:45:12.379Z,56.63
2019-02-23T19:47:42.293Z,54.40
2019-02-23T19:50:14.029Z,56.77
2019-02-23T19:52:42.635Z,55.67
2019-02-23T19:55:14.669Z,55.13
2019-02-23T19:57:43.199Z,51.70
2019-02-23T20:00:11.774Z,60.10
2019-02-23T20:02:40.302Z,57.47
2019-02-23T20:05:10.535Z,66.97
2019-02-23T20:07:39.062Z,53.83
2019-02-23T20:10:09.912Z,52.07
2019-02-23T20:12:38.328Z,56.50
2019-02-23T20:15:09.060Z,53.67
2019-02-23T20:17:37.581Z,54.17
2019-02-23T20:20:07.124Z,52.27
2019-02-23T20:22:35.636Z,62.43
2019-02-23T20:25:04.767Z,54.47
2019-02-23T20:27:33.286Z,59.30
2019-02-23T20:30:01.775Z,56.43
2019-02-23T20:32:30.911Z,57.17
2019-02-23T20:34:59.403Z,57.83
2019-02-23T20:37:27.925Z,59.70
2019-02-23T20:39:56.420Z,51.87
2019-02-23T20:42:25.007Z,54.43
2019-02-23T20:44:53.545Z,51.40
2019-02-23T20:47:22.025Z,53.60
2019-02-23T20:49:50.602Z,53.63
2019-02-23T20:52:19.214Z,55.20
2019-02-23T20:54:47.709Z,50.73
2019-02-23T20:57:18.755Z,50.47
2019-02-23T20:59:48.082Z,51.63
2019-02-23T21:02:16.714Z,53.43
2019-02-23T21:04:45.234Z,55.43
2019-02-23T21:07:13.734Z,51.37
2019-02-23T21:09:43.145Z,51.67
2019-02-23T21:12:11.637Z,53.70
2019-02-23T21:14:40.167Z,54.70
2019-02-23T21:17:08.655Z,47.53
2019-02-23T21:19:37.260Z,50.40
2019-02-23T21:22:05.715Z,57.77
2019-02-23T21:24:34.238Z,55.07
2019-02-23T21:27:02.855Z,51.07
2019-02-23T21:29:31.385Z,45.63
2019-02-23T21:31:59.898Z,41.93
2019-02-23T21:34:28.430Z,35.80
2019-02-23T21:36:56.935Z,35.40
2019-02-23T21:39:25.456Z,34.53
2019-02-23T21:41:53.949Z,40.03
2019-02-23T21:44:22.480Z,30.63
2019-02-23T21:46:51.127Z,33.53
2019-02-23T21:49:19.757Z,33.17
2019-02-23T21:51:48.272Z,29.60
2019-02-23T21:54:16.801Z,29.53
2019-02-23T21:56:45.293Z,30.17
2019-02-23T21:59:13.885Z,31.93
2019-02-23T22:01:42.387Z,30.50
2019-02-23T22:04:10.918Z,28.80
2019-02-23T22:06:39.586Z,30.03
2019-02-23T22:09:08.172Z,29.17
2019-02-23T22:11:36.704Z,27.57
2019-02-23T22:14:06.501Z,26.83
2019-02-23T22:16:34.989Z,24.67
2019-02-23T22:19:03.602Z,25.57
2019-02-23T22:21:32.081Z,21.57
2019-02-23T22:24:00.587Z,21.97
2019-02-23T22:26:29.097Z,23.33
2019-02-23T22:28:57.621Z,23.37
2019-02-23T22:31:26.099Z,21.33
2019-02-23T22:33:54.613Z,23.67
2019-02-23T22:36:23.137Z,22.43
2019-02-23T22:38:51.656Z,20.43
2019-02-23T22:41:20.147Z,22.47
2019-02-23T22:43:48.711Z,20.97
2019-02-23T22:46:17.207Z,17.57
2019-02-23T22:48:45.791Z,19.97
2019-02-23T22:51:14.280Z,18.87
2019-02-23T22:53:42.800Z,23.20
2019-02-23T22:56:11.287Z,18.17
2019-02-23T22:58:39.803Z,20.33
2019-02-23T23:01:08.736Z,20.30
2019-02-23T23:03:37.319Z,21.97
2019-02-23T23:06:05.814Z,21.10
2019-02-23T23:08:34.332Z,23.57
2019-02-23T23:11:02.826Z,20.23
2019-02-23T23:13:31.336Z,22.17
2019-02-23T23:15:59.833Z,21.23
2019-02-23T23:18:28.345Z,24.17
2019-02-23T23:20:56.904Z,26.50
2019-02-23T23:23:25.404Z,23.03
2019-02-23T23:25:53.920Z,24.33
2019-02-23T23:28:22.502Z,20.97
2019-02-23T23:30:51.004Z,23.77
2019-02-23T23:33:19.499Z,19.10
2019-02-23T23:35:48.030Z,22.83
2019-02-23T23:38:16.527Z,23.27
2019-02-23T23:40:45.047Z,20.50
2019-02-23T23:43:13.527Z,21.80
2019-02-23T23:45:42.053Z,20.10
2019-02-23T23:48:10.535Z,19.20
2019-02-23T23:50:39.074Z,19.13
2019-02-23T23:53:07.568Z,23.67
2019-02-23T23:55:36.248Z,21.50
2019-02-23T23:58:04.737Z,18.13
